Foote, Mississippi
Current Conditions -  °F | °C
As of 6:53 PM on Wednesday 22 Oct 2014 (Local Time) from KGLH Reporting Station
Clear Clear  
Wind Chill: 62°   Ceiling: Unl
Heat Index: 62°   Visibility: 10mi
Dew Point: 43°   Wind: 7mph
Humidity: 50%   Direction: 50°NE
Pressure: 30.13"   Gusts: NA
Location:  33.1785°N, 90.8086°W
Report Text: KGLH 222353Z AUTO 05006KT 10SM CLR 17/06 A3013 RMK AO2 SLP210 T01670061 10233 20167 53001
Loading
Personal Weather Stations






























Interactive Weather Map
Tropical Storm Tracking
New forecast layout! Learn more

10-Day Weather Forecast

Advertisements
Track Severe Weather on mobile